Kibble, Illinois
Current Conditions -  °F | °C
As of 8:55 PM on Friday 19 Dec 2014 (Local Time) from KRSV Reporting Station
Clear Clear  
Wind Chill:   Ceiling: Unl
Heat Index:   Visibility: 10mi
Dew Point: -3°   Wind: 3mph
Humidity: 83%   Direction: 90°E
Pressure: 30.29"   Gusts: NA
Location:  39.0119°N, 87.8886°W
Report Text: KRSV 200255Z AUTO 09003KT 10SM CLR 00/M03 A3029 RMK AO2 T10041030
Loading
Personal Weather Stations






























Interactive Weather Map New forecast layout! Learn more

10-Day Weather Forecast

Advertisements
Track Severe Weather on mobile